Time;durP1;ratioP1;P1;durP2;ratioP2;P2;SDS_P1;SDS_P2;PMS_P1;PMS_P2;Temp;Humidity;BMP_temperature;BMP_pressure;BME280_temperature;BME280_humidity;BME280_pressure;Samples;Min_cycle;Max_cycle;Signal;HPM_P1;HPM_P2
2023/08/22 00:02:58;;;;;;;11.60;5.10;;;;;;;;;;5081747;28;20047;-63
2023/08/22 00:06:38;;;;;;;18.88;5.43;;;;;;;;;;5084933;28;20560;-61
2023/08/22 00:10:19;;;;;;;12.98;4.93;;;;;;;;;;5090979;28;20047;-61
2023/08/22 00:13:59;;;;;;;15.63;4.80;;;;;;;;;;5062847;28;20078;-61
2023/08/22 00:17:39;;;;;;;12.40;5.03;;;;;;;;;;5066814;28;20075;-61
2023/08/22 00:21:20;;;;;;;14.65;5.15;;;;;;;;;;5060751;28;20535;-61
2023/08/22 00:25:00;;;;;;;11.48;4.95;;;;;;;;;;5068895;28;20076;-63
2023/08/22 00:28:40;;;;;;;11.77;4.93;;;;;;;;;;5061999;28;20063;-62
2023/08/22 00:32:21;;;;;;;20.05;5.05;;;;;;;;;;5068068;28;20432;-61
2023/08/22 00:36:01;;;;;;;16.58;4.65;;;;;;;;;;5064570;28;20410;-60
2023/08/22 00:39:41;;;;;;;15.48;5.28;;;;;;;;;;5058228;28;20055;-60
2023/08/22 00:43:22;;;;;;;12.68;4.75;;;;;;;;;;5061065;28;20045;-61
2023/08/22 00:47:02;;;;;;;11.75;5.07;;;;;;;;;;5065818;28;20425;-61
2023/08/22 00:50:42;;;;;;;9.80;4.65;;;;;;;;;;5064559;28;20041;-62
2023/08/22 00:54:23;;;;;;;10.60;5.00;;;;;;;;;;5057487;28;20048;-61
2023/08/22 00:58:03;;;;;;;11.85;4.50;;;;;;;;;;5064553;28;20048;-63
2023/08/22 01:01:44;;;;;;;13.48;4.75;;;;;;;;;;5066579;28;20457;-61
2023/08/22 01:05:24;;;;;;;21.98;4.82;;;;;;;;;;5064814;28;20042;-60
2023/08/22 01:09:04;;;;;;;19.50;5.10;;;;;;;;;;5067416;28;20565;-61
2023/08/22 01:12:30;;;;;;;17.58;5.80;;;;;;;;;;5071317;28;20052;-60
2023/08/22 01:16:10;;;;;;;18.77;5.15;;;;;;;;;;5082388;28;20052;-61
2023/08/22 01:19:51;;;;;;;14.57;4.90;;;;;;;;;;5087184;28;20582;-61
2023/08/22 01:23:31;;;;;;;17.00;5.13;;;;;;;;;;5076164;28;20127;-61
2023/08/22 01:27:11;;;;;;;15.95;5.43;;;;;;;;;;5074595;28;20411;-61
2023/08/22 01:30:53;;;;;;;18.75;5.38;;;;;;;;;;5075860;28;20044;-59
2023/08/22 01:34:17;;;;;;;13.85;5.32;;;;;;;;;;5086727;28;20055;-60
2023/08/22 01:37:57;;;;;;;17.17;4.80;;;;;;;;;;5085946;28;20504;-61
2023/08/22 01:41:37;;;;;;;18.70;4.85;;;;;;;;;;5079366;28;20064;-62
2023/08/22 01:45:17;;;;;;;13.70;4.70;;;;;;;;;;5081069;28;20071;-61
2023/08/22 01:48:58;;;;;;;20.00;5.35;;;;;;;;;;5084938;28;20048;-61
2023/08/22 01:52:38;;;;;;;17.70;5.00;;;;;;;;;;5083024;28;20044;-60
2023/08/22 01:56:18;;;;;;;19.73;4.93;;;;;;;;;;5085785;28;20121;-62
2023/08/22 01:59:59;;;;;;;13.57;4.80;;;;;;;;;;5080436;28;20044;-63
2023/08/22 02:03:39;;;;;;;16.13;4.68;;;;;;;;;;5084119;28;20059;-62
2023/08/22 02:07:20;;;;;;;13.93;5.00;;;;;;;;;;5076220;28;20074;-61
2023/08/22 02:11:00;;;;;;;18.00;4.53;;;;;;;;;;5077795;28;20040;-62
2023/08/22 02:14:40;;;;;;;16.55;5.10;;;;;;;;;;5084149;28;20059;-61
2023/08/22 02:18:20;;;;;;;22.17;4.75;;;;;;;;;;5081716;28;20036;-62
2023/08/22 02:22:01;;;;;;;15.80;4.85;;;;;;;;;;5087306;28;20569;-62
2023/08/22 02:25:41;;;;;;;19.85;4.68;;;;;;;;;;5077007;28;20043;-61
2023/08/22 02:29:21;;;;;;;20.73;4.70;;;;;;;;;;5081205;28;20226;-62
2023/08/22 02:33:02;;;;;;;17.95;4.45;;;;;;;;;;5086848;28;20044;-62
2023/08/22 02:36:42;;;;;;;12.13;4.13;;;;;;;;;;5084735;28;20310;-61
2023/08/22 02:40:22;;;;;;;10.40;4.28;;;;;;;;;;5077484;28;20047;-61
2023/08/22 02:44:03;;;;;;;14.98;4.43;;;;;;;;;;5075860;28;20043;-62
2023/08/22 02:47:43;;;;;;;11.18;3.85;;;;;;;;;;5077694;28;20419;-62
2023/08/22 02:51:23;;;;;;;12.25;4.43;;;;;;;;;;5082647;28;20496;-60
2023/08/22 02:55:04;;;;;;;13.77;4.35;;;;;;;;;;5079877;28;20097;-61
2023/08/22 02:58:46;;;;;;;11.18;3.50;;;;;;;;;;5084101;28;20048;-61
2023/08/22 03:02:24;;;;;;;10.18;4.25;;;;;;;;;;5081274;28;20055;-60
2023/08/22 03:06:05;;;;;;;10.18;4.28;;;;;;;;;;5086777;28;20102;-61
2023/08/22 03:09:45;;;;;;;8.35;3.90;;;;;;;;;;5078006;28;20145;-59
2023/08/22 03:13:28;;;;;;;12.57;4.65;;;;;;;;;;5085964;28;20060;-61
2023/08/22 03:17:06;;;;;;;13.13;4.13;;;;;;;;;;5085167;28;20515;-62
2023/08/22 03:20:46;;;;;;;9.23;3.90;;;;;;;;;;5081766;28;20040;-61
2023/08/22 03:24:26;;;;;;;10.57;3.75;;;;;;;;;;5085388;28;20048;-63
2023/08/22 03:28:07;;;;;;;14.82;4.15;;;;;;;;;;5084846;28;20047;-62
2023/08/22 03:31:47;;;;;;;16.35;3.83;;;;;;;;;;5087037;28;20044;-62
2023/08/22 03:35:28;;;;;;;10.30;4.20;;;;;;;;;;5083062;28;20040;-62
2023/08/22 03:39:08;;;;;;;8.57;3.42;;;;;;;;;;5086015;28;20048;-60
2023/08/22 03:42:48;;;;;;;10.02;4.63;;;;;;;;;;5088754;28;20049;-61
2023/08/22 03:46:29;;;;;;;10.93;4.13;;;;;;;;;;5087190;28;20076;-62
2023/08/22 03:50:09;;;;;;;13.15;3.72;;;;;;;;;;5083211;28;20456;-61
2023/08/22 03:53:49;;;;;;;13.93;4.22;;;;;;;;;;5085643;28;20052;-66
2023/08/22 03:57:29;;;;;;;17.30;4.00;;;;;;;;;;5084451;28;20994;-61
2023/08/22 04:01:10;;;;;;;8.82;4.13;;;;;;;;;;5083116;28;20044;-62
2023/08/22 04:04:50;;;;;;;13.90;3.78;;;;;;;;;;5084049;28;20082;-62
2023/08/22 04:08:30;;;;;;;19.75;4.60;;;;;;;;;;5089548;28;20055;-61
2023/08/22 04:12:11;;;;;;;10.13;4.22;;;;;;;;;;5086904;28;20054;-61
2023/08/22 04:15:51;;;;;;;9.90;4.22;;;;;;;;;;5082476;28;20051;-60
2023/08/22 04:19:32;;;;;;;14.68;4.47;;;;;;;;;;5086534;28;20047;-62
2023/08/22 04:23:12;;;;;;;13.25;3.83;;;;;;;;;;5084240;28;20816;-61
2023/08/22 04:26:52;;;;;;;14.93;4.22;;;;;;;;;;5089403;28;20036;-61
2023/08/22 04:30:32;;;;;;;11.23;4.50;;;;;;;;;;5088860;28;20067;-63
2023/08/22 04:34:13;;;;;;;14.77;3.85;;;;;;;;;;5085012;28;20076;-61
2023/08/22 04:37:53;;;;;;;16.88;4.35;;;;;;;;;;5090736;28;20044;-61
2023/08/22 04:41:33;;;;;;;18.17;4.18;;;;;;;;;;5079486;28;20048;-61
2023/08/22 04:45:14;;;;;;;12.27;3.90;;;;;;;;;;5077723;28;20063;-61
2023/08/22 04:48:54;;;;;;;13.82;4.10;;;;;;;;;;5087957;28;20067;-61
2023/08/22 04:52:35;;;;;;;13.50;4.50;;;;;;;;;;5087233;28;20479;-61
2023/08/22 04:56:15;;;;;;;10.68;4.00;;;;;;;;;;5080169;28;20059;-62
2023/08/22 04:59:56;;;;;;;17.88;5.20;;;;;;;;;;5082572;28;20047;-61
2023/08/22 05:03:35;;;;;;;14.80;4.63;;;;;;;;;;5084336;28;20408;-63
2023/08/22 05:07:16;;;;;;;14.13;4.72;;;;;;;;;;5088510;28;20239;-60
2023/08/22 05:10:56;;;;;;;15.40;5.13;;;;;;;;;;5084131;28;20036;-60
2023/08/22 05:14:36;;;;;;;19.08;5.00;;;;;;;;;;5089704;28;20047;-61
2023/08/22 05:18:17;;;;;;;18.60;5.13;;;;;;;;;;5080118;28;20056;-64
2023/08/22 05:21:57;;;;;;;17.55;5.07;;;;;;;;;;5085605;28;20055;-60
2023/08/22 05:25:37;;;;;;;18.55;5.05;;;;;;;;;;5075017;28;20077;-62
2023/08/22 05:29:20;;;;;;;17.30;4.53;;;;;;;;;;5075660;28;20046;-61
2023/08/22 05:32:58;;;;;;;11.90;4.80;;;;;;;;;;5087954;28;20040;-62
2023/08/22 05:36:38;;;;;;;17.17;4.40;;;;;;;;;;5080230;28;20389;-63
2023/08/22 05:40:19;;;;;;;20.77;4.75;;;;;;;;;;5080906;28;20060;-61
2023/08/22 05:43:59;;;;;;;21.33;4.45;;;;;;;;;;5083408;28;20512;-61
2023/08/22 05:47:40;;;;;;;14.77;4.32;;;;;;;;;;5076135;28;20044;-60
2023/08/22 05:51:20;;;;;;;23.90;4.35;;;;;;;;;;5078923;28;20105;-62
2023/08/22 05:55:00;;;;;;;14.82;4.20;;;;;;;;;;5079930;28;20036;-62
2023/08/22 05:58:41;;;;;;;19.15;3.90;;;;;;;;;;5074150;28;20079;-59
2023/08/22 06:02:21;;;;;;;18.63;4.38;;;;;;;;;;5085897;28;20081;-62
2023/08/22 06:06:01;;;;;;;19.45;4.70;;;;;;;;;;5081034;28;20447;-62
2023/08/22 06:09:42;;;;;;;18.70;5.00;;;;;;;;;;5083828;28;20040;-60
2023/08/22 06:13:22;;;;;;;22.00;4.78;;;;;;;;;;5083879;28;20395;-61
2023/08/22 06:17:03;;;;;;;21.02;4.68;;;;;;;;;;5080493;28;20565;-63
2023/08/22 06:20:43;;;;;;;19.63;4.10;;;;;;;;;;5076608;28;20044;-63
2023/08/22 06:24:23;;;;;;;22.92;4.78;;;;;;;;;;5083370;28;20106;-62
2023/08/22 06:28:03;;;;;;;23.48;5.35;;;;;;;;;;5080903;28;20113;-65
2023/08/22 06:31:44;;;;;;;20.15;4.00;;;;;;;;;;5081871;28;20121;-63
2023/08/22 06:35:25;;;;;;;21.50;4.50;;;;;;;;;;5083632;28;20056;-60
2023/08/22 06:39:05;;;;;;;19.52;4.30;;;;;;;;;;5080640;28;20048;-62
2023/08/22 06:42:45;;;;;;;19.35;4.85;;;;;;;;;;5080385;28;20437;-62
2023/08/22 06:46:27;;;;;;;16.25;4.90;;;;;;;;;;5080417;28;20048;-63
2023/08/22 06:50:05;;;;;;;26.92;5.18;;;;;;;;;;5077653;28;20510;-62
2023/08/22 06:53:47;;;;;;;16.65;4.55;;;;;;;;;;5080024;28;20044;-62
2023/08/22 06:57:26;;;;;;;15.77;4.25;;;;;;;;;;5090260;28;20052;-65
2023/08/22 07:01:07;;;;;;;19.15;4.50;;;;;;;;;;5082532;28;20040;-62
2023/08/22 07:04:47;;;;;;;20.23;5.47;;;;;;;;;;5078046;28;20120;-64
2023/08/22 07:08:27;;;;;;;17.88;4.22;;;;;;;;;;5083374;28;20115;-62
2023/08/22 07:12:07;;;;;;;14.43;4.25;;;;;;;;;;5086681;28;20064;-63
2023/08/22 07:15:48;;;;;;;16.67;4.70;;;;;;;;;;5085102;28;20040;-63
2023/08/22 07:19:28;;;;;;;21.95;4.38;;;;;;;;;;5075478;28;20084;-64
2023/08/22 07:23:09;;;;;;;21.20;4.43;;;;;;;;;;5090191;28;20052;-64
2023/08/22 07:26:49;;;;;;;20.02;4.40;;;;;;;;;;5076169;28;20044;-63
2023/08/22 07:30:29;;;;;;;20.58;4.20;;;;;;;;;;5081833;28;20125;-64
2023/08/22 07:34:10;;;;;;;19.95;4.82;;;;;;;;;;5085886;28;20522;-63
2023/08/22 07:37:50;;;;;;;13.77;3.40;;;;;;;;;;5084669;28;20047;-64
2023/08/22 07:41:30;;;;;;;13.23;3.45;;;;;;;;;;5074626;28;20507;-64
2023/08/22 07:45:11;;;;;;;21.00;3.75;;;;;;;;;;5072938;28;20131;-63
2023/08/22 07:48:51;;;;;;;14.07;3.40;;;;;;;;;;5089359;28;20044;-63
2023/08/22 07:52:31;;;;;;;18.08;3.50;;;;;;;;;;5083212;28;20047;-64
2023/08/22 07:56:12;;;;;;;14.07;3.75;;;;;;;;;;5079778;28;20044;-64
2023/08/22 07:59:52;;;;;;;11.52;3.38;;;;;;;;;;5083624;28;20301;-64
2023/08/22 08:03:32;;;;;;;21.60;3.85;;;;;;;;;;5087003;28;20047;-63
2023/08/22 08:07:13;;;;;;;15.60;3.63;;;;;;;;;;5089001;28;20140;-66
2023/08/22 08:10:53;;;;;;;14.57;3.25;;;;;;;;;;5083018;28;20109;-63
2023/08/22 08:14:35;;;;;;;14.50;3.45;;;;;;;;;;5088138;28;20048;-64
2023/08/22 08:18:15;;;;;;;11.00;3.08;;;;;;;;;;5089201;28;20052;-64
2023/08/22 08:21:56;;;;;;;18.63;3.65;;;;;;;;;;5088304;28;20562;-65
2023/08/22 08:25:36;;;;;;;20.35;3.30;;;;;;;;;;5082353;28;20407;-63
2023/08/22 08:29:18;;;;;;;22.90;3.45;;;;;;;;;;5082341;28;20075;-63
2023/08/22 08:32:56;;;;;;;15.73;3.47;;;;;;;;;;5081587;28;20074;-65
2023/08/22 08:36:36;;;;;;;15.50;3.33;;;;;;;;;;5086143;28;20044;-65
2023/08/22 08:40:17;;;;;;;12.02;3.28;;;;;;;;;;5080579;28;20055;-64
2023/08/22 08:43:57;;;;;;;10.70;3.10;;;;;;;;;;5079500;28;20416;-64
2023/08/22 08:47:37;;;;;;;13.95;3.47;;;;;;;;;;5085729;28;20055;-65
2023/08/22 08:51:18;;;;;;;13.40;3.40;;;;;;;;;;5084703;28;20070;-65
2023/08/22 08:54:58;;;;;;;15.88;3.15;;;;;;;;;;5087854;28;20101;-64
2023/08/22 08:58:39;;;;;;;11.68;3.30;;;;;;;;;;5082654;28;20126;-64
2023/08/22 09:02:19;;;;;;;16.17;3.90;;;;;;;;;;5080146;28;20115;-66
2023/08/22 09:05:59;;;;;;;11.02;3.53;;;;;;;;;;5076544;28;20044;-64
2023/08/22 09:09:45;;;;;;;19.70;3.25;;;;;;;;;;5083771;28;20067;-63
2023/08/22 09:13:26;;;;;;;20.80;3.10;;;;;;;;;;5081446;28;20054;-70
2023/08/22 09:17:06;;;;;;;20.10;3.70;;;;;;;;;;5079547;28;20044;-66
2023/08/22 09:20:47;;;;;;;15.13;3.20;;;;;;;;;;5081256;28;20044;-66
2023/08/22 09:24:27;;;;;;;15.73;3.22;;;;;;;;;;5078744;28;20040;-67
2023/08/22 09:28:07;;;;;;;15.38;3.00;;;;;;;;;;5085672;28;20109;-67
2023/08/22 09:32:03;;;;;;;13.02;3.20;;;;;;;;;;5080578;28;20032;-69
2023/08/22 09:35:44;;;;;;;16.73;2.80;;;;;;;;;;5080427;28;20109;-70
2023/08/22 09:39:36;;;;;;;16.80;3.63;;;;;;;;;;5078007;28;20058;-67
2023/08/22 09:43:14;;;;;;;16.95;3.60;;;;;;;;;;5082739;28;20048;-67
2023/08/22 09:46:54;;;;;;;29.15;5.00;;;;;;;;;;5073268;28;20061;-67
2023/08/22 09:50:36;;;;;;;23.17;4.25;;;;;;;;;;5074509;28;20036;-69
2023/08/22 09:54:16;;;;;;;23.55;4.15;;;;;;;;;;5079173;28;20048;-68
2023/08/22 09:57:56;;;;;;;18.25;4.60;;;;;;;;;;5074907;28;20044;-68
2023/08/22 10:01:36;;;;;;;21.17;5.10;;;;;;;;;;5083148;28;20036;-67
2023/08/22 10:05:17;;;;;;;22.95;4.60;;;;;;;;;;5074110;28;20044;-68
2023/08/22 10:08:57;;;;;;;15.68;4.82;;;;;;;;;;5074429;28;20460;-69
2023/08/22 10:12:37;;;;;;;16.75;4.60;;;;;;;;;;5074851;28;20135;-67
2023/08/22 10:16:18;;;;;;;15.23;4.82;;;;;;;;;;5081232;28;20124;-68
2023/08/22 10:19:58;;;;;;;14.55;4.25;;;;;;;;;;5084994;28;20115;-66
2023/08/22 10:23:39;;;;;;;21.65;4.78;;;;;;;;;;5088450;28;20484;-72
2023/08/22 10:27:05;;;;;;;19.02;4.28;;;;;;;;;;5080544;28;20055;-65
2023/08/22 10:30:12;;;;;;;17.55;4.25;;;;;;;;;;5078649;28;20035;-65
2023/08/22 10:33:52;;;;;;;24.70;4.80;;;;;;;;;;5080638;28;20043;-63
2023/08/22 10:37:40;;;;;;;18.70;4.60;;;;;;;;;;5087020;28;20044;-65
2023/08/22 10:41:21;;;;;;;15.02;4.40;;;;;;;;;;5078162;28;20059;-65
2023/08/22 10:45:01;;;;;;;16.92;3.95;;;;;;;;;;5080277;28;20052;-67
2023/08/22 10:48:44;;;;;;;23.13;4.45;;;;;;;;;;5081324;28;20083;-66
2023/08/22 10:52:25;;;;;;;15.45;4.57;;;;;;;;;;5077310;28;20119;-66
2023/08/22 10:56:05;;;;;;;20.08;4.50;;;;;;;;;;5083353;28;20040;-67
2023/08/22 10:59:45;;;;;;;25.52;4.43;;;;;;;;;;5084844;28;20044;-66
2023/08/22 11:03:25;;;;;;;20.83;4.63;;;;;;;;;;5077185;28;20040;-65
2023/08/22 11:07:06;;;;;;;17.88;4.35;;;;;;;;;;5078714;28;20040;-66
2023/08/22 11:10:46;;;;;;;13.23;3.70;;;;;;;;;;5082490;28;20044;-64
2023/08/22 11:14:27;;;;;;;11.73;3.15;;;;;;;;;;5080703;28;20049;-66
2023/08/22 11:18:07;;;;;;;13.38;3.50;;;;;;;;;;5079149;28;20048;-69
2023/08/22 11:21:47;;;;;;;16.35;3.65;;;;;;;;;;5081289;28;20036;-65
2023/08/22 11:25:28;;;;;;;11.30;3.78;;;;;;;;;;5079941;28;20367;-67
2023/08/22 11:29:09;;;;;;;15.50;3.92;;;;;;;;;;5072810;28;20469;-65
2023/08/22 11:32:44;;;;;;;19.58;3.50;;;;;;;;;;5074957;28;20123;-65
2023/08/22 11:36:24;;;;;;;15.55;3.85;;;;;;;;;;5075415;28;20072;-65
2023/08/22 11:40:10;;;;;;;18.52;4.03;;;;;;;;;;5080703;28;20059;-65
2023/08/22 11:43:50;;;;;;;20.83;4.35;;;;;;;;;;5081218;28;20075;-66
2023/08/22 11:47:31;;;;;;;18.73;3.85;;;;;;;;;;5083041;28;20403;-65
2023/08/22 11:51:11;;;;;;;14.68;3.42;;;;;;;;;;5081206;28;20124;-65
2023/08/22 11:54:52;;;;;;;15.02;3.47;;;;;;;;;;5080651;28;20040;-66
2023/08/22 11:58:35;;;;;;;11.43;3.08;;;;;;;;;;5082973;28;20048;-64
2023/08/22 12:02:15;;;;;;;12.60;4.05;;;;;;;;;;5080098;28;20446;-67
2023/08/22 12:06:11;;;;;;;10.45;3.17;;;;;;;;;;5083989;28;20044;-70
2023/08/22 12:09:51;;;;;;;12.90;2.95;;;;;;;;;;5082264;28;20044;-70
2023/08/22 12:13:31;;;;;;;11.35;3.20;;;;;;;;;;5081570;28;20060;-70
2023/08/22 12:17:12;;;;;;;11.85;3.67;;;;;;;;;;5079981;28;20052;-68
2023/08/22 12:20:52;;;;;;;17.98;4.03;;;;;;;;;;5077287;28;20487;-69
2023/08/22 12:24:32;;;;;;;9.25;3.42;;;;;;;;;;5081748;28;20060;-69
2023/08/22 12:28:16;;;;;;;10.98;3.13;;;;;;;;;;5078513;28;20048;-69
2023/08/22 12:31:56;;;;;;;13.70;3.90;;;;;;;;;;5079663;28;20090;-71
2023/08/22 12:35:36;;;;;;;17.65;3.30;;;;;;;;;;5075707;28;20450;-68
2023/08/22 12:39:17;;;;;;;9.48;2.95;;;;;;;;;;5086413;28;20133;-67
2023/08/22 12:42:57;;;;;;;10.55;2.70;;;;;;;;;;5085858;28;20609;-66
2023/08/22 12:46:37;;;;;;;9.55;2.88;;;;;;;;;;5083335;28;20056;-66
2023/08/22 12:50:18;;;;;;;10.13;3.60;;;;;;;;;;5078826;28;20040;-67
2023/08/22 12:53:58;;;;;;;9.98;3.45;;;;;;;;;;5075040;28;20044;-67
2023/08/22 12:57:38;;;;;;;16.27;7.65;;;;;;;;;;5075765;28;20041;-69
2023/08/22 13:01:19;;;;;;;16.13;3.80;;;;;;;;;;5083027;28;20081;-66
2023/08/22 13:04:59;;;;;;;10.48;3.22;;;;;;;;;;5076271;28;20074;-64
2023/08/22 13:08:39;;;;;;;10.95;3.00;;;;;;;;;;5076054;28;20110;-65
2023/08/22 13:12:20;;;;;;;16.00;3.17;;;;;;;;;;5069769;28;20054;-66
2023/08/22 13:16:00;;;;;;;8.98;3.25;;;;;;;;;;5076853;28;20471;-66
2023/08/22 13:19:40;;;;;;;18.35;3.60;;;;;;;;;;5083444;28;20040;-65
2023/08/22 13:23:21;;;;;;;9.88;3.17;;;;;;;;;;5076932;28;20094;-66
2023/08/22 13:27:03;;;;;;;12.52;3.20;;;;;;;;;;5075089;28;20076;-67
2023/08/22 13:30:42;;;;;;;8.73;2.78;;;;;;;;;;5077827;28;20519;-67
2023/08/22 13:34:22;;;;;;;11.45;3.05;;;;;;;;;;5079586;28;20439;-66
2023/08/22 13:38:02;;;;;;;14.95;3.10;;;;;;;;;;5080728;28;20069;-65
2023/08/22 13:41:46;;;;;;;14.15;2.95;;;;;;;;;;5078244;28;20458;-66
2023/08/22 13:45:26;;;;;;;11.60;3.10;;;;;;;;;;5075916;28;20131;-66
2023/08/22 13:49:07;;;;;;;16.33;3.35;;;;;;;;;;5075746;28;20051;-64
2023/08/22 13:52:46;;;;;;;14.95;3.20;;;;;;;;;;5079615;28;20448;-65
2023/08/22 13:56:26;;;;;;;12.40;2.80;;;;;;;;;;5077043;28;20150;-66
2023/08/22 14:00:07;;;;;;;14.35;2.97;;;;;;;;;;5078559;28;20442;-65
2023/08/22 14:03:47;;;;;;;11.93;3.00;;;;;;;;;;5074191;28;20048;-66
2023/08/22 14:07:27;;;;;;;12.73;2.88;;;;;;;;;;5077953;28;20041;-66
2023/08/22 14:11:08;;;;;;;15.60;2.92;;;;;;;;;;5074267;28;20074;-66
2023/08/22 14:14:48;;;;;;;15.40;3.38;;;;;;;;;;5075616;28;20056;-65
2023/08/22 14:18:28;;;;;;;6.90;2.55;;;;;;;;;;5074431;28;20132;-66
2023/08/22 14:22:09;;;;;;;15.52;2.92;;;;;;;;;;5075778;28;20054;-65
2023/08/22 14:25:49;;;;;;;13.13;2.88;;;;;;;;;;5077706;28;20152;-69
2023/08/22 14:29:30;;;;;;;12.20;3.22;;;;;;;;;;5069520;28;20241;-66
2023/08/22 14:33:10;;;;;;;11.57;3.00;;;;;;;;;;5072805;28;20104;-67
2023/08/22 14:36:50;;;;;;;13.13;3.10;;;;;;;;;;5074935;28;20434;-66
2023/08/22 14:40:32;;;;;;;10.75;2.95;;;;;;;;;;5072076;28;20114;-66
2023/08/22 14:44:12;;;;;;;9.95;3.15;;;;;;;;;;5081549;28;20397;-67
2023/08/22 14:47:55;;;;;;;14.52;3.20;;;;;;;;;;5076548;28;20147;-65
2023/08/22 14:51:35;;;;;;;9.00;2.75;;;;;;;;;;5073645;28;20105;-67
2023/08/22 14:55:16;;;;;;;18.08;3.80;;;;;;;;;;5070318;28;20505;-66
2023/08/22 14:59:02;;;;;;;13.38;2.88;;;;;;;;;;5078727;28;20046;-68
2023/08/22 15:02:42;;;;;;;9.15;2.50;;;;;;;;;;5072370;28;20048;-66
2023/08/22 15:06:22;;;;;;;11.73;2.95;;;;;;;;;;5075191;28;20162;-66
2023/08/22 15:10:04;;;;;;;8.35;2.80;;;;;;;;;;5071669;28;20044;-68
2023/08/22 15:13:44;;;;;;;10.02;2.60;;;;;;;;;;5071177;28;20051;-67
2023/08/22 15:17:25;;;;;;;9.63;2.67;;;;;;;;;;5075760;28;20052;-68
2023/08/22 15:21:05;;;;;;;8.65;2.65;;;;;;;;;;5074466;28;20504;-65
2023/08/22 15:24:46;;;;;;;10.43;2.40;;;;;;;;;;5078454;28;20082;-68
2023/08/22 15:28:29;;;;;;;10.77;3.03;;;;;;;;;;5076502;28;20122;-70
2023/08/22 15:32:09;;;;;;;13.85;3.13;;;;;;;;;;5081774;28;20044;-68
2023/08/22 15:35:50;;;;;;;10.27;2.88;;;;;;;;;;5081549;28;20044;-65
2023/08/22 15:39:30;;;;;;;12.65;3.30;;;;;;;;;;5083631;28;20082;-67
2023/08/22 15:43:13;;;;;;;9.50;2.90;;;;;;;;;;5076457;28;20131;-66
2023/08/22 15:46:55;;;;;;;10.63;3.63;;;;;;;;;;5079712;28;20497;-66
2023/08/22 15:49:56;;;;;;;10.82;3.20;;;;;;;;;;5081201;28;20044;-67
2023/08/22 15:52:24;;;;;;;10.02;2.72;;;;;;;;;;5084369;28;20047;-67
2023/08/22 15:54:50;;;;;;;12.80;2.97;;;;;;;;;;5083454;28;20043;-67
2023/08/22 15:57:16;;;;;;;9.10;2.65;;;;;;;;;;5079854;28;20036;-67
2023/08/22 15:59:41;;;;;;;13.32;3.28;;;;;;;;;;5088096;28;20550;-67
2023/08/22 16:02:07;;;;;;;12.00;3.42;;;;;;;;;;5088604;28;20040;-68
2023/08/22 16:04:34;;;;;;;17.02;3.00;;;;;;;;;;5084350;28;20401;-69
2023/08/22 16:07:01;;;;;;;10.70;3.05;;;;;;;;;;5078279;28;20504;-68
2023/08/22 16:09:27;;;;;;;12.10;3.10;;;;;;;;;;5083236;28;20048;-66
2023/08/22 16:11:54;;;;;;;9.10;3.20;;;;;;;;;;5076310;28;20142;-65
2023/08/22 16:14:20;;;;;;;13.27;3.10;;;;;;;;;;5093162;27;20060;-65
2023/08/22 16:16:46;;;;;;;13.85;2.80;;;;;;;;;;5079550;28;20790;-67
2023/08/22 16:19:12;;;;;;;13.05;3.20;;;;;;;;;;5081634;28;20040;-66
2023/08/22 16:21:38;;;;;;;10.60;3.03;;;;;;;;;;5081550;28;20040;-64
2023/08/22 16:24:04;;;;;;;9.32;3.28;;;;;;;;;;5082860;28;20051;-64
2023/08/22 16:26:31;;;;;;;9.88;3.30;;;;;;;;;;5081862;28;20070;-64
2023/08/22 16:28:57;;;;;;;10.57;3.20;;;;;;;;;;5077443;28;20045;-64
2023/08/22 16:31:26;;;;;;;6.95;2.83;;;;;;;;;;5082130;28;20511;-64
2023/08/22 16:33:52;;;;;;;9.90;3.15;;;;;;;;;;5088745;28;20056;-62
2023/08/22 16:36:18;;;;;;;12.48;3.38;;;;;;;;;;5086607;28;20448;-63
2023/08/22 16:38:44;;;;;;;10.88;3.42;;;;;;;;;;5083451;28;20040;-63
2023/08/22 16:41:10;;;;;;;9.98;3.35;;;;;;;;;;5080220;28;20048;-62
2023/08/22 16:43:36;;;;;;;10.30;3.42;;;;;;;;;;5073773;28;20077;-64
2023/08/22 16:46:03;;;;;;;10.63;2.83;;;;;;;;;;5070440;28;20397;-61
2023/08/22 16:48:30;;;;;;;10.50;3.40;;;;;;;;;;5076687;28;20098;-62
2023/08/22 16:50:57;;;;;;;7.68;3.10;;;;;;;;;;5079554;28;20045;-64
2023/08/22 16:53:24;;;;;;;10.57;3.53;;;;;;;;;;5073233;28;20060;-62
2023/08/22 16:55:55;;;;;;;8.43;3.03;;;;;;;;;;5071980;28;20048;-63
2023/08/22 16:58:21;;;;;;;8.00;3.22;;;;;;;;;;5070872;28;20609;-63
2023/08/22 17:00:47;;;;;;;10.65;3.45;;;;;;;;;;5070458;28;20426;-62
2023/08/22 17:03:13;;;;;;;10.20;3.10;;;;;;;;;;5073564;28;20481;-63
2023/08/22 17:05:46;;;;;;;9.45;2.90;;;;;;;;;;5071229;28;20091;-63
2023/08/22 17:08:15;;;;;;;12.27;3.80;;;;;;;;;;5070642;28;20044;-63
2023/08/22 17:10:41;;;;;;;11.77;3.58;;;;;;;;;;5067070;28;20049;-61
2023/08/22 17:13:08;;;;;;;11.73;3.88;;;;;;;;;;5067229;28;20052;-63
2023/08/22 17:15:34;;;;;;;9.95;3.50;;;;;;;;;;5066894;28;20315;-63
2023/08/22 17:17:59;;;;;;;13.88;3.70;;;;;;;;;;5068797;28;20056;-68
2023/08/22 17:20:26;;;;;;;11.10;4.00;;;;;;;;;;5072011;28;20045;-63
2023/08/22 17:22:53;;;;;;;7.38;3.70;;;;;;;;;;5069546;28;20049;-64
2023/08/22 17:25:19;;;;;;;10.07;3.72;;;;;;;;;;5068214;28;20548;-64
2023/08/22 17:27:45;;;;;;;10.73;3.58;;;;;;;;;;5073416;28;20067;-64
2023/08/22 17:30:12;;;;;;;7.18;3.30;;;;;;;;;;5066246;28;20055;-64
2023/08/22 17:32:38;;;;;;;10.73;4.30;;;;;;;;;;5072223;28;20056;-64
2023/08/22 17:35:05;;;;;;;10.60;4.15;;;;;;;;;;5067837;28;20056;-65
2023/08/22 17:37:31;;;;;;;13.77;4.05;;;;;;;;;;5075532;28;20055;-63
2023/08/22 17:39:57;;;;;;;10.45;4.53;;;;;;;;;;5069013;28;20040;-63
2023/08/22 17:42:23;;;;;;;14.00;4.80;;;;;;;;;;5074273;28;20520;-64
2023/08/22 17:44:51;;;;;;;13.10;5.03;;;;;;;;;;5069879;28;20083;-63
2023/08/22 17:47:17;;;;;;;12.40;5.15;;;;;;;;;;5068646;28;20076;-62
2023/08/22 17:49:43;;;;;;;11.43;5.28;;;;;;;;;;5069852;28;20062;-65
2023/08/22 17:52:09;;;;;;;11.93;4.22;;;;;;;;;;5069165;28;20155;-63
2023/08/22 17:54:35;;;;;;;15.57;4.57;;;;;;;;;;5071593;28;20074;-64
2023/08/22 17:57:02;;;;;;;14.20;4.97;;;;;;;;;;5077437;28;20147;-63
2023/08/22 17:59:28;;;;;;;12.73;4.90;;;;;;;;;;5074768;27;20054;-64
2023/08/22 18:01:53;;;;;;;12.95;4.95;;;;;;;;;;5068879;28;20409;-64
2023/08/22 18:04:20;;;;;;;15.30;5.22;;;;;;;;;;5067447;28;20067;-62
2023/08/22 18:06:46;;;;;;;17.80;4.53;;;;;;;;;;5070095;28;20420;-65
2023/08/22 18:09:12;;;;;;;13.50;4.70;;;;;;;;;;5071141;28;20055;-64
2023/08/22 18:11:38;;;;;;;13.35;4.90;;;;;;;;;;5069700;28;20271;-64
2023/08/22 18:14:06;;;;;;;10.07;4.65;;;;;;;;;;5075183;28;20558;-64
2023/08/22 18:16:32;;;;;;;15.00;5.28;;;;;;;;;;5067803;28;20526;-65
2023/08/22 18:18:58;;;;;;;17.35;5.47;;;;;;;;;;5065514;28;20109;-64
2023/08/22 18:21:24;;;;;;;13.48;5.90;;;;;;;;;;5069805;28;20472;-62
2023/08/22 18:23:50;;;;;;;16.35;4.53;;;;;;;;;;5070237;28;20913;-65
2023/08/22 18:26:17;;;;;;;15.30;5.28;;;;;;;;;;5069114;28;20101;-67
2023/08/22 18:28:43;;;;;;;12.48;5.03;;;;;;;;;;5066766;28;20063;-64
2023/08/22 18:31:22;;;;;;;9.98;4.78;;;;;;;;;;5074482;28;20044;-63
2023/08/22 18:33:53;;;;;;;13.00;4.82;;;;;;;;;;5080310;28;20738;-65
2023/08/22 18:36:21;;;;;;;14.82;4.47;;;;;;;;;;5078838;28;20538;-65
2023/08/22 18:38:47;;;;;;;10.35;4.13;;;;;;;;;;5075895;28;20040;-66
2023/08/22 18:41:13;;;;;;;10.02;3.55;;;;;;;;;;5083775;28;20121;-63
2023/08/22 18:43:46;;;;;;;6.45;3.20;;;;;;;;;;5077747;28;20049;-62
2023/08/22 18:46:13;;;;;;;8.97;3.13;;;;;;;;;;5085332;28;20055;-65
2023/08/22 18:48:40;;;;;;;8.23;3.50;;;;;;;;;;5079416;28;20288;-62
2023/08/22 18:51:06;;;;;;;9.30;3.45;;;;;;;;;;5081970;28;20040;-62
2023/08/22 18:53:33;;;;;;;10.35;3.58;;;;;;;;;;5086593;28;20047;-60
2023/08/22 18:55:59;;;;;;;9.32;3.40;;;;;;;;;;5089595;28;20048;-65
2023/08/22 18:58:30;;;;;;;16.48;3.67;;;;;;;;;;5090344;28;20132;-66
2023/08/22 19:00:57;;;;;;;8.43;3.20;;;;;;;;;;5077409;28;20422;-62
2023/08/22 19:03:24;;;;;;;9.10;3.45;;;;;;;;;;5079353;28;20059;-64
2023/08/22 19:05:53;;;;;;;10.98;3.60;;;;;;;;;;5081369;28;20044;-63
2023/08/22 19:08:19;;;;;;;8.32;3.40;;;;;;;;;;5079484;28;20499;-65
2023/08/22 19:10:47;;;;;;;11.02;3.38;;;;;;;;;;5088805;28;20059;-63
2023/08/22 19:13:13;;;;;;;8.05;3.42;;;;;;;;;;5089009;28;20048;-65
2023/08/22 19:15:41;;;;;;;12.07;3.88;;;;;;;;;;5089772;28;20052;-62
2023/08/22 19:18:09;;;;;;;11.60;3.53;;;;;;;;;;5084898;28;20132;-62
2023/08/22 19:20:35;;;;;;;14.82;3.63;;;;;;;;;;5081997;28;20044;-62
2023/08/22 19:23:02;;;;;;;5.88;2.95;;;;;;;;;;5089493;28;20491;-65
2023/08/22 19:25:27;;;;;;;11.90;3.28;;;;;;;;;;5085976;28;20058;-62
2023/08/22 19:27:55;;;;;;;9.65;4.35;;;;;;;;;;5089492;28;20060;-59
2023/08/22 19:30:21;;;;;;;12.85;3.53;;;;;;;;;;5077298;28;20109;-61
2023/08/22 19:32:47;;;;;;;13.05;3.97;;;;;;;;;;5089657;28;20051;-69
2023/08/22 19:35:14;;;;;;;14.73;3.65;;;;;;;;;;5088630;28;20578;-62
2023/08/22 19:37:40;;;;;;;11.35;3.28;;;;;;;;;;5088438;28;20055;-63
2023/08/22 19:40:07;;;;;;;7.15;3.40;;;;;;;;;;5084393;28;20048;-61
2023/08/22 19:42:33;;;;;;;10.63;3.45;;;;;;;;;;5082828;28;20546;-62
2023/08/22 19:45:00;;;;;;;9.60;3.30;;;;;;;;;;5086383;28;20054;-64